首页
METAR-TAF:

METAR-TAF

机场 :

帶廣機場

帶廣, 日本

纬度: 42-44N, 经度: 143-13E, 海拔: 149米

当前天气观测

该预报发布于3小时和18分钟前的11:00 UTC
风速1节,风向多变
温度 21°C
湿度 83%
气压 1012 hPa
能见度10公里或以上
少量云层高于5000英尺
多云

METAR: RJCB 201100Z VRB01KT 9999 FEW050 BKN/// 21/18 Q1012

时间: 23:18 (14:18 UTC)

预报

该预报发布于3小时和11分钟前的11:07 UTC
预报有效从20日的 12点(UTC)到 21日的 18点(UTC)
风速5节,风向南转南东
能见度10公里或以上
少量云层高于4000英尺
短暂存在
从 21日的 09点(UTC)到 21日的 12点(UTC)
能見度: 3000
多云层高于500英尺
多云层高于2500英尺
少量云层高于2500英尺, 积雨云.
阵雨, 轻雾
短暂存在
从 21日的 12点(UTC)到 21日的 18点(UTC)
能見度: 0700
层高于100英尺
小阵雨, 雾

TAF: RJCB 201107Z 2012/2118 16005KT 9999 FEW040 TEMPO 2109/2112 3000 SHRA BR BKN005 BKN025 FEW025CB TEMPO 2112/2118 0700 -SHRA FG VV001

超过4000个机场的气象观测和天气预报(METAR&TAF报告)。

可查询的气象台以黄色和红色小点在地图上表示。

将鼠标移到小点上方,可查看气象台名称。

然后点击查看天气观测和预报。

如需切换地图:点击带黑十字的绿色按钮放大地图;点击带横线的绿色按钮缩小地图;或者点击绿色箭头查看邻近地区的地图。


METAR-TAF: